createdAt,value
2022-12-11T00:00:31.279Z,11.30
2022-12-11T00:02:59.270Z,13.33
2022-12-11T00:05:27.360Z,8.33
2022-12-11T00:07:55.320Z,9.30
2022-12-11T00:10:24.877Z,8.37
2022-12-11T00:12:52.960Z,9.23
2022-12-11T00:15:22.236Z,11.40
2022-12-11T00:17:50.192Z,14.77
2022-12-11T00:20:18.259Z,11.90
2022-12-11T00:22:46.229Z,8.83
2022-12-11T00:25:14.351Z,11.93
2022-12-11T00:27:43.748Z,10.00
2022-12-11T00:30:12.217Z,8.53
2022-12-11T00:32:40.345Z,8.03
2022-12-11T00:35:08.923Z,7.77
2022-12-11T00:37:37.153Z,9.10
2022-12-11T00:40:05.315Z,9.70
2022-12-11T00:42:33.224Z,8.80
2022-12-11T00:45:02.751Z,9.20
2022-12-11T00:47:30.725Z,9.27
2022-12-11T00:49:58.755Z,6.23
2022-12-11T00:52:26.769Z,8.17
2022-12-11T00:54:54.670Z,7.10
2022-12-11T00:57:22.632Z,9.07
2022-12-11T00:59:50.533Z,7.60
2022-12-11T01:02:19.866Z,7.60
2022-12-11T01:04:47.855Z,10.50
2022-12-11T01:07:15.797Z,8.83
2022-12-11T01:10:01.323Z,8.83
2022-12-11T01:12:29.277Z,6.27
2022-12-11T01:14:57.255Z,8.50
2022-12-11T01:17:26.628Z,8.23
2022-12-11T01:19:54.960Z,7.97
2022-12-11T01:22:23.187Z,10.40
2022-12-11T01:24:51.236Z,8.07
2022-12-11T01:27:19.191Z,8.30
2022-12-11T01:29:47.163Z,9.73
2022-12-11T01:32:15.128Z,8.97
2022-12-11T01:34:44.486Z,7.70
2022-12-11T01:37:12.567Z,6.23
2022-12-11T01:39:40.526Z,10.33
2022-12-11T01:42:10.577Z,9.80
2022-12-11T01:44:57.087Z,11.00
2022-12-11T01:47:25.077Z,6.60
2022-12-11T01:49:54.476Z,9.17
2022-12-11T01:52:23.389Z,12.80
2022-12-11T01:54:51.657Z,11.97
2022-12-11T01:57:19.684Z,6.87
2022-12-11T01:59:47.935Z,8.43
2022-12-11T02:02:17.068Z,8.40
2022-12-11T02:04:45.875Z,8.40
2022-12-11T02:07:15.295Z,7.23
2022-12-11T02:09:45.074Z,8.50
2022-12-11T02:12:16.758Z,9.20
2022-12-11T02:14:48.268Z,7.57
2022-12-11T02:17:18.153Z,9.07
2022-12-11T02:19:50.494Z,6.90
2022-12-11T02:22:24.068Z,7.93
2022-12-11T02:24:57.366Z,7.40
2022-12-11T02:27:30.593Z,9.23
2022-12-11T02:30:03.227Z,8.50
2022-12-11T02:32:34.043Z,8.23
2022-12-11T02:35:06.070Z,7.43
2022-12-11T02:37:35.585Z,7.33
2022-12-11T02:40:04.396Z,10.00
2022-12-11T02:42:33.845Z,7.37
2022-12-11T02:45:03.956Z,7.30
2022-12-11T02:47:32.792Z,7.00
2022-12-11T02:50:02.357Z,7.67
2022-12-11T02:52:32.384Z,7.97
2022-12-11T02:55:00.958Z,7.00
2022-12-11T02:57:31.361Z,6.77
2022-12-11T02:59:59.311Z,8.63
2022-12-11T03:02:28.804Z,9.53
2022-12-11T03:04:58.954Z,9.73
2022-12-11T03:07:29.639Z,8.03
2022-12-11T03:09:58.990Z,8.37
2022-12-11T03:12:30.478Z,8.03
2022-12-11T03:15:02.041Z,11.23
2022-12-11T03:17:35.381Z,7.37
2022-12-11T03:20:07.713Z,8.50
2022-12-11T03:22:40.085Z,7.30
2022-12-11T03:25:10.847Z,9.13
2022-12-11T03:27:44.565Z,7.27
2022-12-11T03:30:15.670Z,7.00
2022-12-11T03:32:49.414Z,9.53
2022-12-11T03:35:21.812Z,8.77
2022-12-11T03:37:52.016Z,10.20
2022-12-11T03:40:22.341Z,7.87
2022-12-11T03:42:52.651Z,9.50
2022-12-11T03:45:22.005Z,10.27
2022-12-11T03:47:52.634Z,8.47
2022-12-11T03:50:22.256Z,7.93
2022-12-11T03:52:51.496Z,9.03
2022-12-11T03:55:21.618Z,7.00
2022-12-11T03:57:51.168Z,9.73
2022-12-11T04:00:21.634Z,8.03
2022-12-11T04:03:13.527Z,6.60
2022-12-11T04:05:43.908Z,10.37
2022-12-11T04:08:12.038Z,6.90
2022-12-11T04:10:40.068Z,7.50
2022-12-11T04:13:08.314Z,6.67
2022-12-11T04:15:35.728Z,8.87
2022-12-11T04:18:21.043Z,7.20
2022-12-11T04:21:07.790Z,8.00
2022-12-11T04:23:53.447Z,8.30
2022-12-11T04:26:22.227Z,8.57
2022-12-11T04:28:51.176Z,8.23
2022-12-11T04:31:21.096Z,7.60
2022-12-11T04:33:49.535Z,7.47
2022-12-11T04:36:19.083Z,6.60
2022-12-11T04:38:47.210Z,7.40
2022-12-11T04:41:16.093Z,11.73
2022-12-11T04:43:45.445Z,7.70
2022-12-11T04:46:14.179Z,9.27
2022-12-11T04:48:43.674Z,6.40
2022-12-11T04:51:13.193Z,10.07
2022-12-11T04:53:44.178Z,7.43
2022-12-11T04:56:14.313Z,10.10
2022-12-11T04:58:43.663Z,9.70
2022-12-11T05:01:12.439Z,8.77
2022-12-11T05:03:41.219Z,9.67
2022-12-11T05:06:09.885Z,7.93
2022-12-11T05:08:39.319Z,9.70
2022-12-11T05:11:10.464Z,9.63
2022-12-11T05:13:38.841Z,8.47
2022-12-11T05:16:07.336Z,12.33
2022-12-11T05:18:35.503Z,9.60
2022-12-11T05:21:05.250Z,10.23
2022-12-11T05:23:33.367Z,8.30
2022-12-11T05:26:01.941Z,10.07
2022-12-11T05:28:32.458Z,8.67
2022-12-11T05:31:01.330Z,12.77
2022-12-11T05:33:29.830Z,11.47
2022-12-11T05:35:57.884Z,8.20
2022-12-11T05:38:25.942Z,8.37
2022-12-11T05:40:58.030Z,8.20
2022-12-11T05:43:26.090Z,8.90
2022-12-11T05:45:55.862Z,9.00
2022-12-11T05:48:24.169Z,11.03
2022-12-11T05:50:59.272Z,14.70
2022-12-11T05:53:27.794Z,9.10
2022-12-11T05:55:56.439Z,14.73
2022-12-11T05:58:24.384Z,11.00
2022-12-11T06:00:52.355Z,12.27
2022-12-11T06:03:21.699Z,9.20
2022-12-11T06:05:51.215Z,8.50
2022-12-11T06:08:19.246Z,8.47
2022-12-11T06:10:47.916Z,12.50
2022-12-11T06:13:16.443Z,10.20
2022-12-11T06:15:44.432Z,8.87
2022-12-11T06:18:12.378Z,10.97
2022-12-11T06:20:41.764Z,10.57
2022-12-11T06:23:09.721Z,11.47
2022-12-11T06:25:39.470Z,9.47
2022-12-11T06:28:07.598Z,9.30
2022-12-11T06:30:38.603Z,9.03
2022-12-11T06:33:07.523Z,10.37
2022-12-11T06:35:41.659Z,14.23
2022-12-11T06:38:11.878Z,15.57
2022-12-11T06:40:39.994Z,12.60
2022-12-11T06:43:07.926Z,10.57
2022-12-11T06:45:37.134Z,11.57
2022-12-11T06:48:05.345Z,11.77
2022-12-11T06:50:33.933Z,10.93
2022-12-11T06:53:02.227Z,12.23
2022-12-11T06:55:31.969Z,14.40
2022-12-11T06:58:00.210Z,10.97
2022-12-11T07:00:28.145Z,12.10
2022-12-11T07:02:56.305Z,13.33
2022-12-11T07:05:24.358Z,13.13
2022-12-11T07:07:54.492Z,9.57
2022-12-11T07:10:22.548Z,9.60
2022-12-11T07:12:53.624Z,10.90
2022-12-11T07:15:21.659Z,8.63
2022-12-11T07:17:49.580Z,9.63
2022-12-11T07:20:18.168Z,13.03
2022-12-11T07:22:46.829Z,9.03
2022-12-11T07:25:15.012Z,12.40
2022-12-11T07:27:43.326Z,11.33
2022-12-11T07:30:13.362Z,12.63
2022-12-11T07:32:41.304Z,10.40
2022-12-11T07:35:10.091Z,11.57
2022-12-11T07:37:38.419Z,10.20
2022-12-11T07:40:06.880Z,12.37
2022-12-11T07:42:34.889Z,11.70
2022-12-11T07:45:02.978Z,9.47
2022-12-11T07:47:32.359Z,9.13
2022-12-11T07:50:00.408Z,9.73
2022-12-11T07:52:28.425Z,11.00
2022-12-11T07:54:56.361Z,11.80
2022-12-11T07:57:24.359Z,8.30
2022-12-11T07:59:52.437Z,11.37
2022-12-11T08:02:22.846Z,9.53
2022-12-11T08:04:52.302Z,10.77
2022-12-11T08:07:20.382Z,9.30
2022-12-11T08:09:48.448Z,11.23
2022-12-11T08:12:16.841Z,10.57
2022-12-11T08:14:44.921Z,10.93
2022-12-11T08:17:13.246Z,11.23
2022-12-11T08:19:41.668Z,14.90
2022-12-11T08:22:11.162Z,12.23
2022-12-11T08:24:39.308Z,12.67
2022-12-11T08:27:07.439Z,12.47
2022-12-11T08:29:35.545Z,12.83
2022-12-11T08:32:06.396Z,10.73
2022-12-11T08:34:38.610Z,11.67
2022-12-11T08:37:06.550Z,15.43
2022-12-11T08:39:36.812Z,12.50
2022-12-11T08:42:05.361Z,11.10
2022-12-11T08:44:33.315Z,13.53
2022-12-11T08:47:01.282Z,14.53
2022-12-11T08:49:34.184Z,15.80
2022-12-11T08:52:02.572Z,15.73
2022-12-11T08:54:30.550Z,12.80
2022-12-11T08:56:59.891Z,12.77
2022-12-11T08:59:27.864Z,15.60
2022-12-11T09:01:56.125Z,12.63
2022-12-11T09:04:24.055Z,12.93
2022-12-11T09:06:52.251Z,11.67
2022-12-11T09:09:20.174Z,16.23
2022-12-11T09:11:48.131Z,14.47
2022-12-11T09:14:17.620Z,14.10
2022-12-11T09:16:45.627Z,18.60
2022-12-11T09:19:14.818Z,12.63
2022-12-11T09:21:43.576Z,11.40
2022-12-11T09:24:12.313Z,9.73
2022-12-11T09:26:40.691Z,19.53
2022-12-11T09:29:09.094Z,12.13
2022-12-11T09:31:38.519Z,15.63
2022-12-11T09:34:07.904Z,12.57
2022-12-11T09:36:36.015Z,10.90
2022-12-11T09:39:04.726Z,12.07
2022-12-11T09:41:40.599Z,13.80
2022-12-11T09:44:17.080Z,13.57
2022-12-11T09:46:46.854Z,13.67
2022-12-11T09:49:21.483Z,14.20
2022-12-11T09:51:51.492Z,14.97
2022-12-11T09:54:19.506Z,14.60
2022-12-11T09:56:52.632Z,12.80
2022-12-11T09:59:24.831Z,11.93
2022-12-11T10:01:56.799Z,11.60
2022-12-11T10:04:42.549Z,15.57
2022-12-11T10:07:13.257Z,13.07
2022-12-11T10:09:44.821Z,14.37
2022-12-11T10:12:24.924Z,14.13
2022-12-11T10:15:01.126Z,15.73
2022-12-11T10:17:32.252Z,12.00
2022-12-11T10:20:04.553Z,15.43
2022-12-11T10:22:33.101Z,15.87
2022-12-11T10:25:11.548Z,10.30
2022-12-11T10:27:41.605Z,16.93
2022-12-11T10:30:15.983Z,13.30
2022-12-11T10:32:50.678Z,14.50
2022-12-11T10:35:20.151Z,14.90
2022-12-11T10:37:48.100Z,17.00
2022-12-11T10:40:16.186Z,15.17
2022-12-11T10:42:52.734Z,14.47
2022-12-11T10:45:20.755Z,18.13
2022-12-11T10:47:50.081Z,17.93
2022-12-11T10:50:24.762Z,13.67
2022-12-11T10:52:53.952Z,15.93
2022-12-11T10:55:26.075Z,12.90
2022-12-11T10:57:59.110Z,14.90
2022-12-11T11:00:32.192Z,13.93
2022-12-11T11:03:02.851Z,14.33
2022-12-11T11:05:32.143Z,12.97
2022-12-11T11:08:13.971Z,14.47
2022-12-11T11:10:51.578Z,14.50
2022-12-11T11:13:21.897Z,11.97
2022-12-11T11:15:49.957Z,14.33
2022-12-11T11:18:25.561Z,12.73
2022-12-11T11:20:53.810Z,15.37
2022-12-11T11:23:22.851Z,15.13
2022-12-11T11:25:51.870Z,13.37
2022-12-11T11:28:21.561Z,10.87
2022-12-11T11:30:57.947Z,14.13
2022-12-11T11:33:27.572Z,14.13
2022-12-11T11:35:57.472Z,12.57
2022-12-11T11:38:27.730Z,12.97
2022-12-11T11:41:02.277Z,13.13
2022-12-11T11:43:35.716Z,12.47
2022-12-11T11:46:07.024Z,14.00
2022-12-11T11:48:41.349Z,11.20
2022-12-11T11:51:14.984Z,13.57
2022-12-11T11:53:47.342Z,14.27
2022-12-11T11:56:21.456Z,18.53
2022-12-11T11:58:55.586Z,13.83
2022-12-11T12:01:23.865Z,16.07
2022-12-11T12:03:53.744Z,19.03
2022-12-11T12:06:26.694Z,13.80
2022-12-11T12:08:57.584Z,14.50
2022-12-11T12:11:35.938Z,12.30
2022-12-11T12:14:28.758Z,17.73
2022-12-11T12:17:02.880Z,11.40
2022-12-11T12:19:39.567Z,15.97
2022-12-11T12:22:14.698Z,16.20
2022-12-11T12:24:49.512Z,14.47
2022-12-11T12:27:50.642Z,16.37
2022-12-11T12:30:14.090Z,13.63
2022-12-11T12:32:48.874Z,14.90
2022-12-11T12:35:23.794Z,17.53
2022-12-11T12:37:57.517Z,15.27
2022-12-11T12:40:29.225Z,18.90
2022-12-11T12:43:01.662Z,15.47
2022-12-11T12:45:31.086Z,12.83
2022-12-11T12:47:59.093Z,14.43
2022-12-11T12:50:31.638Z,14.63
2022-12-11T12:52:59.919Z,16.23
2022-12-11T12:55:29.668Z,14.00
2022-12-11T12:58:00.484Z,14.60
2022-12-11T13:00:33.136Z,13.60
2022-12-11T13:03:03.088Z,13.40
2022-12-11T13:05:34.896Z,15.97
2022-12-11T13:08:04.673Z,13.10
2022-12-11T13:10:33.641Z,12.80
2022-12-11T13:13:02.430Z,15.33
2022-12-11T13:15:35.624Z,16.70
2022-12-11T13:18:04.888Z,17.57
2022-12-11T13:20:35.709Z,17.10
2022-12-11T13:23:11.317Z,20.13
2022-12-11T13:25:50.741Z,16.23
2022-12-11T13:28:24.021Z,21.63
2022-12-11T13:30:58.735Z,13.27
2022-12-11T13:33:27.106Z,13.23
2022-12-11T13:36:20.112Z,14.93
2022-12-11T13:38:52.771Z,11.90
2022-12-11T13:41:20.926Z,15.33
2022-12-11T13:43:50.346Z,18.63
2022-12-11T13:46:21.982Z,18.43
2022-12-11T13:48:51.825Z,14.30
2022-12-11T13:51:22.221Z,18.50
2022-12-11T13:53:50.799Z,14.03
2022-12-11T13:56:20.192Z,14.30
2022-12-11T13:58:48.784Z,16.47
2022-12-11T14:01:18.284Z,21.13
2022-12-11T14:03:50.065Z,19.37
2022-12-11T14:06:19.666Z,20.20
2022-12-11T14:08:50.682Z,15.13
2022-12-11T14:11:22.454Z,16.93
2022-12-11T14:13:51.061Z,14.10
2022-12-11T14:16:21.881Z,15.73
2022-12-11T14:18:50.983Z,13.80
2022-12-11T14:21:20.179Z,19.30
2022-12-11T14:23:54.702Z,16.00
2022-12-11T14:26:24.804Z,21.67
2022-12-11T14:28:53.061Z,16.60
2022-12-11T14:31:24.926Z,16.63
2022-12-11T14:33:54.027Z,19.20
2022-12-11T14:36:22.215Z,15.53
2022-12-11T14:38:54.075Z,20.23
2022-12-11T14:41:26.483Z,18.30
2022-12-11T14:43:55.966Z,20.87
2022-12-11T14:46:25.393Z,18.83
2022-12-11T14:49:00.370Z,17.63
2022-12-11T14:51:30.307Z,20.50
2022-12-11T14:53:58.604Z,16.80
2022-12-11T14:56:30.218Z,17.10
2022-12-11T14:58:59.656Z,20.80
2022-12-11T15:01:29.065Z,22.27
2022-12-11T15:04:04.614Z,23.43
2022-12-11T15:06:33.802Z,19.83
2022-12-11T15:09:11.177Z,21.73
2022-12-11T15:11:40.597Z,17.88
2022-12-11T15:14:12.228Z,22.37
2022-12-11T15:16:42.119Z,17.92
2022-12-11T15:19:18.328Z,20.43
2022-12-11T15:21:46.371Z,19.43
2022-12-11T15:24:23.563Z,21.47
2022-12-11T15:26:55.748Z,21.60
2022-12-11T15:29:28.586Z,23.87
2022-12-11T15:32:15.345Z,13.40
2022-12-11T15:34:44.807Z,18.10
2022-12-11T15:37:19.038Z,17.77
2022-12-11T15:39:47.263Z,20.75
2022-12-11T15:42:17.801Z,18.77
2022-12-11T15:44:46.268Z,18.80
2022-12-11T15:47:14.666Z,15.23
2022-12-11T15:49:42.927Z,17.73
2022-12-11T15:52:10.919Z,23.27
2022-12-11T15:54:38.891Z,16.05
2022-12-11T15:57:08.941Z,24.35
2022-12-11T15:59:38.351Z,19.88
2022-12-11T16:02:11.007Z,20.33
2022-12-11T16:04:38.989Z,18.55
2022-12-11T16:07:07.256Z,18.15
2022-12-11T16:09:35.911Z,18.98
2022-12-11T16:12:03.875Z,19.80
2022-12-11T16:14:31.843Z,21.88
2022-12-11T16:17:01.254Z,22.48
2022-12-11T16:19:29.253Z,20.17
2022-12-11T16:21:57.227Z,19.43
2022-12-11T16:24:25.206Z,22.93
2022-12-11T16:26:53.237Z,21.98
2022-12-11T16:29:21.391Z,20.42
2022-12-11T16:31:49.373Z,22.00
2022-12-11T16:34:18.830Z,16.13
2022-12-11T16:36:46.830Z,18.90
2022-12-11T16:39:14.758Z,16.85
2022-12-11T16:41:42.757Z,22.20
2022-12-11T16:44:10.738Z,19.88
2022-12-11T16:46:39.049Z,18.17
2022-12-11T16:49:07.019Z,21.40
2022-12-11T16:51:36.366Z,18.98
2022-12-11T16:54:04.587Z,20.17
2022-12-11T16:56:32.517Z,26.38
2022-12-11T16:59:02.127Z,19.08
2022-12-11T17:01:30.141Z,19.40
2022-12-11T17:03:59.350Z,29.80
2022-12-11T17:06:27.386Z,18.93
2022-12-11T17:08:56.845Z,24.30
2022-12-11T17:11:26.371Z,20.48
2022-12-11T17:13:54.942Z,22.17
2022-12-11T17:16:25.058Z,20.67
2022-12-11T17:18:53.179Z,21.80
2022-12-11T17:21:21.584Z,18.77
2022-12-11T17:23:49.870Z,22.30
2022-12-11T17:26:19.934Z,23.00
2022-12-11T17:28:47.903Z,22.17
2022-12-11T17:31:16.865Z,22.30
2022-12-11T17:33:45.145Z,21.97
2022-12-11T17:36:14.565Z,21.10
2022-12-11T17:38:42.501Z,26.60
2022-12-11T17:41:16.933Z,22.80
2022-12-11T17:43:50.168Z,17.57
2022-12-11T17:46:18.378Z,18.40
2022-12-11T17:48:46.372Z,27.93
2022-12-11T17:51:21.190Z,23.97
2022-12-11T17:53:49.336Z,15.90
2022-12-11T17:56:17.441Z,25.93
2022-12-11T17:58:45.572Z,19.67
2022-12-11T18:01:15.088Z,20.97
2022-12-11T18:03:43.506Z,24.10
2022-12-11T18:06:13.310Z,22.67
2022-12-11T18:08:41.664Z,21.33
2022-12-11T18:11:10.600Z,18.58
2022-12-11T18:13:38.814Z,25.98
2022-12-11T18:16:07.843Z,23.02
2022-12-11T18:18:37.264Z,21.88
2022-12-11T18:21:05.614Z,19.35
2022-12-11T18:23:33.610Z,18.30
2022-12-11T18:26:01.723Z,17.38
2022-12-11T18:28:31.880Z,25.05
2022-12-11T18:31:00.996Z,22.42
2022-12-11T18:33:29.202Z,24.55
2022-12-11T18:35:58.764Z,22.40
2022-12-11T18:38:26.781Z,20.38
2022-12-11T18:40:54.754Z,19.65
2022-12-11T18:43:22.762Z,19.58
2022-12-11T18:45:51.926Z,22.40
2022-12-11T18:48:19.892Z,19.30
2022-12-11T18:50:48.659Z,26.60
2022-12-11T18:53:18.163Z,23.13
2022-12-11T18:55:47.106Z,27.50
2022-12-11T18:58:15.942Z,22.40
2022-12-11T19:00:44.229Z,21.97
2022-12-11T19:03:12.213Z,23.90
2022-12-11T19:05:42.679Z,17.33
2022-12-11T19:08:11.410Z,25.17
2022-12-11T19:10:44.697Z,26.73
2022-12-11T19:13:13.005Z,17.50
2022-12-11T19:15:41.554Z,21.00
2022-12-11T19:18:09.638Z,29.07
2022-12-11T19:21:03.284Z,22.53
2022-12-11T19:23:26.712Z,23.90
2022-12-11T19:25:56.102Z,21.43
2022-12-11T19:28:24.085Z,28.00
2022-12-11T19:30:52.030Z,20.33
2022-12-11T19:33:19.981Z,18.85
2022-12-11T19:35:47.974Z,21.65
2022-12-11T19:38:15.947Z,27.77
2022-12-11T19:40:44.509Z,25.20
2022-12-11T19:43:13.913Z,21.65
2022-12-11T19:45:42.807Z,24.65
2022-12-11T19:48:10.712Z,19.63
2022-12-11T19:50:38.661Z,25.70
2022-12-11T19:53:06.887Z,24.27
2022-12-11T19:55:34.813Z,21.35
2022-12-11T19:58:02.756Z,20.60
2022-12-11T20:00:32.322Z,21.90
2022-12-11T20:03:00.291Z,19.42
2022-12-11T20:05:28.250Z,22.48
2022-12-11T20:07:57.501Z,25.10
2022-12-11T20:10:33.349Z,24.73
2022-12-11T20:13:01.353Z,27.70
2022-12-11T20:15:29.370Z,28.20
2022-12-11T20:17:59.467Z,26.65
2022-12-11T20:20:28.226Z,26.13
2022-12-11T20:22:57.122Z,30.17
2022-12-11T20:25:25.321Z,26.35
2022-12-11T20:27:53.277Z,25.85
2022-12-11T20:30:21.437Z,27.02
2022-12-11T20:32:49.432Z,25.35
2022-12-11T20:35:19.000Z,22.35
2022-12-11T20:37:46.942Z,23.42
2022-12-11T20:40:14.865Z,23.27
2022-12-11T20:42:42.851Z,27.52
2022-12-11T20:45:11.397Z,26.70
2022-12-11T20:47:39.423Z,24.08
2022-12-11T20:50:09.054Z,27.17
2022-12-11T20:52:38.855Z,21.40
2022-12-11T20:55:11.010Z,23.42
2022-12-11T20:57:44.759Z,27.85
2022-12-11T21:00:13.803Z,22.38
2022-12-11T21:02:41.740Z,26.40
2022-12-11T21:05:10.214Z,24.67
2022-12-11T21:07:39.728Z,25.67
2022-12-11T21:10:08.254Z,22.77
2022-12-11T21:12:38.267Z,25.40
2022-12-11T21:15:08.916Z,30.30
2022-12-11T21:17:36.951Z,26.90
2022-12-11T21:20:05.314Z,21.13
2022-12-11T21:22:33.275Z,26.97
2022-12-11T21:25:02.637Z,25.23
2022-12-11T21:27:30.652Z,26.50
2022-12-11T21:29:58.614Z,26.17
2022-12-11T21:32:27.544Z,22.23
2022-12-11T21:34:57.297Z,23.73
2022-12-11T21:37:25.280Z,27.07
2022-12-11T21:39:55.942Z,27.58
2022-12-11T21:42:26.022Z,27.63
2022-12-11T21:45:51.833Z,26.30
2022-12-11T21:47:41.883Z,28.73
2022-12-11T21:50:09.867Z,27.93
2022-12-11T21:52:38.624Z,24.57
2022-12-11T21:55:06.995Z,38.63
2022-12-11T21:57:36.449Z,31.03
2022-12-11T22:00:05.361Z,24.17
2022-12-11T22:02:39.052Z,27.17
2022-12-11T22:05:09.549Z,26.47
2022-12-11T22:07:37.651Z,32.45
2022-12-11T22:10:06.281Z,33.38
2022-12-11T22:12:34.286Z,29.53
2022-12-11T22:15:03.684Z,30.65
2022-12-11T22:17:32.384Z,26.90
2022-12-11T22:20:00.383Z,25.85
2022-12-11T22:22:28.387Z,29.67
2022-12-11T22:24:56.388Z,28.98
2022-12-11T22:27:24.391Z,28.47
2022-12-11T22:29:52.334Z,34.58
2022-12-11T22:32:21.720Z,24.97
2022-12-11T22:34:49.736Z,27.17
2022-12-11T22:37:17.674Z,24.00
2022-12-11T22:39:45.590Z,22.70
2022-12-11T22:42:13.539Z,29.20
2022-12-11T22:44:41.479Z,26.90
2022-12-11T22:47:09.476Z,24.42
2022-12-11T22:49:38.863Z,27.23
2022-12-11T22:52:06.824Z,22.38
2022-12-11T22:54:34.919Z,27.07
2022-12-11T22:57:02.889Z,24.60
2022-12-11T22:59:30.873Z,24.87
2022-12-11T23:01:58.878Z,31.77
2022-12-11T23:04:27.095Z,22.73
2022-12-11T23:06:56.539Z,26.10
2022-12-11T23:09:24.461Z,27.27
2022-12-11T23:11:52.722Z,24.37
2022-12-11T23:14:20.829Z,26.90
2022-12-11T23:16:48.858Z,29.83
2022-12-11T23:19:20.804Z,29.83
2022-12-11T23:21:51.820Z,23.80
2022-12-11T23:24:21.186Z,28.73
2022-12-11T23:26:49.400Z,29.97
2022-12-11T23:29:17.413Z,28.33
2022-12-11T23:31:45.335Z,22.95
2022-12-11T23:34:13.283Z,28.33
2022-12-11T23:36:41.323Z,30.90
2022-12-11T23:39:09.250Z,25.03
2022-12-11T23:41:38.664Z,27.17
2022-12-11T23:44:06.612Z,34.20
2022-12-11T23:46:34.656Z,27.07
2022-12-11T23:49:02.704Z,25.97
2022-12-11T23:51:31.135Z,25.70
2022-12-11T23:53:59.162Z,27.17
2022-12-11T23:56:28.921Z,29.03
2022-12-11T23:58:58.664Z,26.60
